Flugplatz Ingolstadt Manching Airport

Bericht für ETSI

vom 27.06. um 07:20 UTC

Wind 8 kt aus 60°

Sichtweite 10 km oder mehr

gering bewölkt in 16000 ft

Temperatur 27.0°C

Taupunkt 19.0°C

Luftfeuchtigkeit 62%

Luftdruck 1023 hPa

ETSI 270720Z 06008KT 9999 FEW160 27/19 Q1023 BLU+BLU+

Prognose für ETSI

vom 27.06. um 00:00 UTC

Zwischen 00:00 UTC und 00:00 UTC

Wind 5 kt aus 310°

Sichtweite 10 km oder mehr

keine signifikanten Wettererscheinungen

gering bewölkt in 5000 ft


Zwischen 00:00 und 00:00 UTC übergehend zu

Wind 10 kt aus 350° in Böen 20 kt

Sichtweite 10 km oder mehr

keine signifikanten Wettererscheinungen

gering bewölkt in 6000 ft

TAF ETSI 270714Z 2708/2717 31005KT 9999 NSW FEW050 BECMG 2714/2716 35010G20KT 9999 NSW FEW060
Impressum